Time;durP1;ratioP1;P1;durP2;ratioP2;P2;SDS_P1;SDS_P2;PMS_P1;PMS_P2;Temp;Humidity;BMP_temperature;BMP_pressure;BME280_temperature;BME280_humidity;BME280_pressure;Samples;Min_cycle;Max_cycle;Signal;HPM_P1;HPM_P2
2021/09/18 00:01:37;;;;;;;12.32;8.55;;;;;;;;;;5060174;28;20108;-78
2021/09/18 00:04:05;;;;;;;12.00;7.70;;;;;;;;;;5060595;28;20119;-78
2021/09/18 00:06:31;;;;;;;10.35;8.20;;;;;;;;;;5056889;28;20036;-78
2021/09/18 00:08:57;;;;;;;13.60;9.63;;;;;;;;;;5064307;28;20052;-78
2021/09/18 00:11:23;;;;;;;14.05;11.07;;;;;;;;;;5070386;28;20068;-78
2021/09/18 00:13:49;;;;;;;17.55;11.40;;;;;;;;;;5072479;28;20673;-78
2021/09/18 00:16:15;;;;;;;15.60;10.23;;;;;;;;;;5071135;28;20875;-78
2021/09/18 00:18:41;;;;;;;13.65;11.73;;;;;;;;;;5071970;28;20032;-78
2021/09/18 00:21:07;;;;;;;13.65;11.45;;;;;;;;;;5069468;28;20035;-77
2021/09/18 00:23:33;;;;;;;14.25;11.15;;;;;;;;;;5052425;28;20116;-78
2021/09/18 00:25:59;;;;;;;13.27;9.05;;;;;;;;;;5050716;28;20035;-78
2021/09/18 00:28:25;;;;;;;13.80;9.00;;;;;;;;;;5070671;28;20043;-78
2021/09/18 00:30:51;;;;;;;9.90;5.95;;;;;;;;;;5070141;28;20753;-77
2021/09/18 00:33:18;;;;;;;8.63;5.63;;;;;;;;;;5069703;28;20033;-78
2021/09/18 00:35:44;;;;;;;10.10;5.07;;;;;;;;;;5071346;28;20068;-77
2021/09/18 00:38:10;;;;;;;9.45;4.90;;;;;;;;;;5055853;28;20502;-77
2021/09/18 00:40:36;;;;;;;7.70;4.03;;;;;;;;;;5051951;28;20481;-78
2021/09/18 00:43:02;;;;;;;8.10;3.88;;;;;;;;;;5051175;28;20044;-78
2021/09/18 00:45:28;;;;;;;5.70;3.80;;;;;;;;;;5051537;28;20442;-78
2021/09/18 00:47:54;;;;;;;7.18;4.63;;;;;;;;;;5059646;28;20036;-78
2021/09/18 00:50:20;;;;;;;13.60;6.22;;;;;;;;;;5071119;28;20048;-78
2021/09/18 00:52:47;;;;;;;7.45;5.30;;;;;;;;;;5070721;28;20036;-77
2021/09/18 00:55:13;;;;;;;9.23;5.90;;;;;;;;;;5071504;28;20036;-78
2021/09/18 00:57:41;;;;;;;11.85;4.50;;;;;;;;;;5070403;28;20080;-78
2021/09/18 01:00:09;;;;;;;9.75;5.25;;;;;;;;;;5053055;28;20021;-77
2021/09/18 01:02:35;;;;;;;9.75;4.97;;;;;;;;;;5050620;28;20693;-78
2021/09/18 01:05:01;;;;;;;8.00;4.63;;;;;;;;;;5050981;28;20046;-77
2021/09/18 01:07:27;;;;;;;6.90;3.88;;;;;;;;;;5051188;28;20364;-78
2021/09/18 01:09:54;;;;;;;8.55;4.82;;;;;;;;;;5050553;28;20040;-78
2021/09/18 01:12:20;;;;;;;11.00;4.72;;;;;;;;;;5051430;28;20065;-78
2021/09/18 01:14:47;;;;;;;8.82;4.60;;;;;;;;;;5050476;28;20029;-78
2021/09/18 01:17:13;;;;;;;9.75;4.20;;;;;;;;;;5050700;28;20041;-78
2021/09/18 01:19:39;;;;;;;7.82;3.53;;;;;;;;;;5064320;28;20483;-77
2021/09/18 01:22:07;;;;;;;7.95;3.50;;;;;;;;;;5069409;28;20041;-78
2021/09/18 01:24:33;;;;;;;6.95;2.97;;;;;;;;;;5058790;28;20041;-78
2021/09/18 01:26:59;;;;;;;8.07;3.47;;;;;;;;;;5049959;28;20040;-78
2021/09/18 01:29:25;;;;;;;7.07;2.92;;;;;;;;;;5049295;28;20026;-77
2021/09/18 01:31:51;;;;;;;7.10;3.17;;;;;;;;;;5051963;28;20078;-77
2021/09/18 01:34:22;;;;;;;9.73;3.15;;;;;;;;;;5050754;28;20115;-78
2021/09/18 01:36:49;;;;;;;5.90;4.00;;;;;;;;;;5051397;28;20048;-78
2021/09/18 01:39:15;;;;;;;8.60;3.00;;;;;;;;;;5059763;28;20062;-78
2021/09/18 01:41:43;;;;;;;6.15;3.50;;;;;;;;;;5070616;28;20493;-78
2021/09/18 01:44:10;;;;;;;7.15;3.78;;;;;;;;;;5070126;28;20497;-78
2021/09/18 01:46:36;;;;;;;10.57;3.72;;;;;;;;;;5070326;28;20470;-78
2021/09/18 01:49:02;;;;;;;7.45;3.55;;;;;;;;;;5068563;28;20486;-78
2021/09/18 01:51:30;;;;;;;6.90;3.33;;;;;;;;;;5070067;28;20040;-78
2021/09/18 01:53:56;;;;;;;7.25;3.38;;;;;;;;;;5069822;28;20028;-78
2021/09/18 01:56:22;;;;;;;6.85;3.63;;;;;;;;;;5069557;28;20060;-78
2021/09/18 01:58:49;;;;;;;9.23;4.03;;;;;;;;;;5069561;28;20103;-77
2021/09/18 02:01:15;;;;;;;6.10;3.40;;;;;;;;;;5069386;28;20098;-77
2021/09/18 02:03:41;;;;;;;10.93;3.38;;;;;;;;;;5069975;28;20066;-78
2021/09/18 02:06:08;;;;;;;6.20;3.13;;;;;;;;;;5070148;28;20041;-77
2021/09/18 02:08:34;;;;;;;7.25;3.50;;;;;;;;;;5064253;28;20032;-78
2021/09/18 02:11:00;;;;;;;7.68;3.28;;;;;;;;;;5076496;28;20412;-78
2021/09/18 02:13:26;;;;;;;8.32;3.53;;;;;;;;;;5073997;28;20036;-78
2021/09/18 02:15:52;;;;;;;7.28;3.13;;;;;;;;;;5069889;28;20068;-77
2021/09/18 02:18:19;;;;;;;8.02;4.25;;;;;;;;;;5069737;28;20024;-78
2021/09/18 02:20:45;;;;;;;8.43;3.35;;;;;;;;;;5069602;28;20094;-77
2021/09/18 02:23:12;;;;;;;7.05;4.57;;;;;;;;;;5067738;28;20025;-77
2021/09/18 02:25:38;;;;;;;10.15;3.90;;;;;;;;;;5068441;28;20427;-78
2021/09/18 02:28:05;;;;;;;6.95;4.00;;;;;;;;;;5068877;28;20017;-78
2021/09/18 02:30:32;;;;;;;11.13;5.15;;;;;;;;;;5070102;28;20102;-78
2021/09/18 02:32:59;;;;;;;8.85;5.10;;;;;;;;;;5069227;28;20052;-78
2021/09/18 02:35:26;;;;;;;14.23;4.80;;;;;;;;;;5059887;28;20032;-78
2021/09/18 02:37:53;;;;;;;9.85;4.93;;;;;;;;;;5069638;28;20161;-78
2021/09/18 02:40:20;;;;;;;8.52;3.80;;;;;;;;;;5069257;28;20044;-77
2021/09/18 02:42:48;;;;;;;7.00;4.30;;;;;;;;;;5068847;28;20031;-78
2021/09/18 02:45:15;;;;;;;6.30;3.95;;;;;;;;;;5069471;28;20390;-78
2021/09/18 02:47:41;;;;;;;6.18;3.75;;;;;;;;;;5067386;28;20074;-78
2021/09/18 02:50:08;;;;;;;8.35;4.70;;;;;;;;;;5049268;28;20043;-77
2021/09/18 02:52:34;;;;;;;11.52;4.43;;;;;;;;;;5051183;28;20080;-77
2021/09/18 02:55:00;;;;;;;9.25;4.57;;;;;;;;;;5069225;28;20047;-78
2021/09/18 02:57:27;;;;;;;7.78;4.95;;;;;;;;;;5067369;28;20712;-78
2021/09/18 02:59:53;;;;;;;12.15;4.25;;;;;;;;;;5068972;28;20482;-78
2021/09/18 03:02:19;;;;;;;6.18;3.70;;;;;;;;;;5069673;28;20066;-77
2021/09/18 03:04:45;;;;;;;8.10;4.28;;;;;;;;;;5068554;28;20048;-77
2021/09/18 03:07:11;;;;;;;9.55;3.90;;;;;;;;;;5065787;28;20480;-77
2021/09/18 03:09:37;;;;;;;7.43;4.03;;;;;;;;;;5054477;28;20636;-78
2021/09/18 03:12:03;;;;;;;6.60;3.88;;;;;;;;;;5060622;28;20044;-78
2021/09/18 03:14:29;;;;;;;8.48;3.70;;;;;;;;;;5058598;28;20143;-77
2021/09/18 03:16:55;;;;;;;9.45;3.60;;;;;;;;;;5057783;28;20033;-78
2021/09/18 03:19:21;;;;;;;10.45;3.25;;;;;;;;;;5048638;28;20112;-78
2021/09/18 03:21:47;;;;;;;7.03;3.40;;;;;;;;;;5048915;28;20071;-78
2021/09/18 03:24:13;;;;;;;7.25;4.57;;;;;;;;;;5056555;28;20029;-77
2021/09/18 03:26:43;;;;;;;7.95;3.38;;;;;;;;;;5057522;28;20041;-77
2021/09/18 03:29:13;;;;;;;7.07;3.30;;;;;;;;;;5066491;28;20020;-78
2021/09/18 03:31:40;;;;;;;9.05;3.80;;;;;;;;;;5063131;28;20041;-78
2021/09/18 03:34:06;;;;;;;7.75;3.05;;;;;;;;;;5070856;28;20675;-78
2021/09/18 03:36:32;;;;;;;4.57;3.03;;;;;;;;;;5054880;28;20051;-77
2021/09/18 03:38:58;;;;;;;5.80;3.15;;;;;;;;;;5052076;28;20848;-78
2021/09/18 03:41:25;;;;;;;6.18;3.60;;;;;;;;;;5064693;28;20074;-78
2021/09/18 03:43:51;;;;;;;7.13;3.80;;;;;;;;;;5072672;28;20032;-78
2021/09/18 03:46:17;;;;;;;10.38;3.63;;;;;;;;;;5072469;28;20636;-78
2021/09/18 03:48:43;;;;;;;7.28;3.88;;;;;;;;;;5058076;28;20043;-77
2021/09/18 03:51:09;;;;;;;8.30;4.20;;;;;;;;;;5060245;28;20076;-77
2021/09/18 03:53:35;;;;;;;5.78;3.78;;;;;;;;;;5058519;28;20032;-78
2021/09/18 03:56:01;;;;;;;5.40;3.28;;;;;;;;;;5052124;28;20051;-78
2021/09/18 03:58:27;;;;;;;9.27;3.85;;;;;;;;;;5060396;28;20029;-78
2021/09/18 04:00:53;;;;;;;11.13;4.35;;;;;;;;;;5072372;28;20040;-78
2021/09/18 04:03:20;;;;;;;6.57;3.75;;;;;;;;;;5065652;28;20471;-78
2021/09/18 04:05:46;;;;;;;6.20;4.10;;;;;;;;;;5052187;28;20040;-77
2021/09/18 04:08:12;;;;;;;9.32;3.80;;;;;;;;;;5055202;28;20024;-78
2021/09/18 04:10:38;;;;;;;7.60;4.25;;;;;;;;;;5072120;28;20033;-77
2021/09/18 04:13:05;;;;;;;9.43;3.90;;;;;;;;;;5071613;28;20025;-77
2021/09/18 04:15:31;;;;;;;7.70;4.53;;;;;;;;;;5071898;28;20036;-78
2021/09/18 04:17:57;;;;;;;8.60;4.00;;;;;;;;;;5071624;28;20036;-78
2021/09/18 04:20:23;;;;;;;6.78;3.35;;;;;;;;;;5071099;28;20040;-78
2021/09/18 04:22:49;;;;;;;9.18;4.15;;;;;;;;;;5071966;28;20024;-78
2021/09/18 04:25:15;;;;;;;6.25;3.45;;;;;;;;;;5060741;28;20446;-78
2021/09/18 04:27:41;;;;;;;9.65;3.50;;;;;;;;;;5071644;28;20039;-77
2021/09/18 04:30:08;;;;;;;8.48;3.20;;;;;;;;;;5071401;28;20103;-78
2021/09/18 04:32:34;;;;;;;5.40;2.97;;;;;;;;;;5071953;28;20479;-78
2021/09/18 04:35:00;;;;;;;5.72;3.53;;;;;;;;;;5071307;28;20030;-77
2021/09/18 04:37:26;;;;;;;7.00;3.85;;;;;;;;;;5072519;28;20033;-77
2021/09/18 04:39:52;;;;;;;6.07;3.55;;;;;;;;;;5071733;28;20348;-78
2021/09/18 04:42:18;;;;;;;9.55;3.65;;;;;;;;;;5071527;28;20044;-78
2021/09/18 04:44:44;;;;;;;6.20;3.13;;;;;;;;;;5071756;28;20024;-78
2021/09/18 04:47:10;;;;;;;8.50;3.63;;;;;;;;;;5070566;28;20040;-77
2021/09/18 04:49:36;;;;;;;8.23;4.13;;;;;;;;;;5071501;28;20036;-78
2021/09/18 04:52:03;;;;;;;6.55;3.50;;;;;;;;;;5070622;28;20044;-78
2021/09/18 04:54:29;;;;;;;12.55;3.38;;;;;;;;;;5069843;28;20484;-77
2021/09/18 04:56:55;;;;;;;7.13;3.25;;;;;;;;;;5070500;28;20057;-78
2021/09/18 04:59:21;;;;;;;5.45;3.38;;;;;;;;;;5070419;28;20037;-77
2021/09/18 05:01:47;;;;;;;5.88;3.13;;;;;;;;;;5070444;28;20033;-78
2021/09/18 05:04:13;;;;;;;8.27;2.90;;;;;;;;;;5070987;28;20033;-78
2021/09/18 05:06:39;;;;;;;4.53;3.08;;;;;;;;;;5069881;28;20071;-78
2021/09/18 05:09:05;;;;;;;5.63;2.42;;;;;;;;;;5071092;28;20060;-77
2021/09/18 05:11:31;;;;;;;6.20;3.15;;;;;;;;;;5069666;28;20040;-78
2021/09/18 05:13:58;;;;;;;6.75;2.70;;;;;;;;;;5070773;28;20024;-77
2021/09/18 05:16:24;;;;;;;8.07;3.97;;;;;;;;;;5064658;28;20044;-77
2021/09/18 05:18:50;;;;;;;11.90;4.80;;;;;;;;;;5050913;28;20029;-77
2021/09/18 05:21:16;;;;;;;10.95;4.57;;;;;;;;;;5052911;28;20037;-77
2021/09/18 05:23:42;;;;;;;7.15;4.55;;;;;;;;;;5070586;28;20020;-77
2021/09/18 05:26:10;;;;;;;7.32;4.10;;;;;;;;;;5069683;28;20138;-78
2021/09/18 05:28:36;;;;;;;8.25;3.55;;;;;;;;;;5070288;28;20058;-78
2021/09/18 05:31:02;;;;;;;8.65;4.55;;;;;;;;;;5055123;28;20044;-77
2021/09/18 05:33:28;;;;;;;8.43;3.90;;;;;;;;;;5066518;28;20093;-78
2021/09/18 05:35:54;;;;;;;7.28;4.05;;;;;;;;;;5056642;28;20666;-77
2021/09/18 05:38:20;;;;;;;7.80;3.95;;;;;;;;;;5069058;28;20050;-77
2021/09/18 05:40:46;;;;;;;6.20;3.45;;;;;;;;;;5069851;28;20033;-77
2021/09/18 05:43:12;;;;;;;8.45;4.07;;;;;;;;;;5069792;28;20608;-77
2021/09/18 05:45:38;;;;;;;6.80;3.63;;;;;;;;;;5066932;28;20029;-77
2021/09/18 05:48:04;;;;;;;9.52;4.07;;;;;;;;;;5070973;28;20043;-77
2021/09/18 05:50:31;;;;;;;7.07;3.05;;;;;;;;;;5070387;28;20043;-78
2021/09/18 05:52:57;;;;;;;6.45;3.40;;;;;;;;;;5069369;28;20673;-78
2021/09/18 05:55:23;;;;;;;10.05;4.05;;;;;;;;;;5070104;28;20036;-78
2021/09/18 05:57:49;;;;;;;6.32;3.53;;;;;;;;;;5069394;28;20044;-77
2021/09/18 06:00:15;;;;;;;8.65;3.83;;;;;;;;;;5069672;28;20849;-77
2021/09/18 06:02:41;;;;;;;6.78;3.50;;;;;;;;;;5065110;28;20024;-77
2021/09/18 06:05:11;;;;;;;11.63;4.70;;;;;;;;;;5049727;28;20021;-77
2021/09/18 06:07:37;;;;;;;6.55;3.70;;;;;;;;;;5055791;28;20043;-78
2021/09/18 06:10:04;;;;;;;7.95;4.30;;;;;;;;;;5067443;28;20091;-78
2021/09/18 06:12:30;;;;;;;9.68;4.47;;;;;;;;;;5069334;28;20032;-77
2021/09/18 06:14:56;;;;;;;9.57;5.10;;;;;;;;;;5063057;28;20037;-78
2021/09/18 06:17:22;;;;;;;8.07;3.58;;;;;;;;;;5070072;28;20479;-77
2021/09/18 06:19:48;;;;;;;17.63;4.65;;;;;;;;;;5078912;28;20016;-77
2021/09/18 06:22:14;;;;;;;7.30;4.85;;;;;;;;;;5064712;28;20052;-77
2021/09/18 06:24:41;;;;;;;10.18;4.47;;;;;;;;;;5064911;28;20027;-78
2021/09/18 06:27:07;;;;;;;8.80;4.30;;;;;;;;;;5066909;28;20036;-77
2021/09/18 06:29:33;;;;;;;10.40;5.28;;;;;;;;;;5067992;28;20066;-78
2021/09/18 06:31:59;;;;;;;9.77;4.97;;;;;;;;;;5069256;28;20039;-77
2021/09/18 06:34:26;;;;;;;9.88;5.00;;;;;;;;;;5076829;28;20089;-78
2021/09/18 06:36:52;;;;;;;11.10;5.07;;;;;;;;;;5068695;28;20040;-78
2021/09/18 06:39:18;;;;;;;6.68;4.40;;;;;;;;;;5068005;28;20463;-77
2021/09/18 06:41:44;;;;;;;10.68;5.00;;;;;;;;;;5066563;28;20028;-78
2021/09/18 06:44:10;;;;;;;9.65;4.32;;;;;;;;;;5061481;28;20032;-78
2021/09/18 06:46:36;;;;;;;9.93;5.18;;;;;;;;;;5057148;28;20041;-79
2021/09/18 06:49:02;;;;;;;7.72;4.82;;;;;;;;;;5055198;28;20403;-78
2021/09/18 06:51:28;;;;;;;11.07;5.32;;;;;;;;;;5059139;28;20040;-78
2021/09/18 06:53:54;;;;;;;9.75;5.78;;;;;;;;;;5061304;28;20024;-78
2021/09/18 06:56:20;;;;;;;15.07;6.70;;;;;;;;;;5057335;28;20056;-78
2021/09/18 06:58:46;;;;;;;10.52;6.13;;;;;;;;;;5049243;28;20033;-78
2021/09/18 07:01:12;;;;;;;7.47;5.18;;;;;;;;;;5052168;28;20039;-78
2021/09/18 07:03:39;;;;;;;7.35;4.70;;;;;;;;;;5068278;28;20457;-77
2021/09/18 07:06:05;;;;;;;10.65;4.68;;;;;;;;;;5069287;28;20116;-77
2021/09/18 07:08:31;;;;;;;12.15;5.55;;;;;;;;;;5068332;28;20060;-77
2021/09/18 07:10:57;;;;;;;11.27;6.15;;;;;;;;;;5064230;28;20028;-79
2021/09/18 07:13:23;;;;;;;15.05;7.78;;;;;;;;;;5059348;28;20020;-80
2021/09/18 07:15:52;;;;;;;12.63;7.40;;;;;;;;;;5070360;28;20478;-80
2021/09/18 07:18:19;;;;;;;11.60;6.38;;;;;;;;;;5068705;28;20120;-79
2021/09/18 07:20:45;;;;;;;10.02;6.00;;;;;;;;;;5070963;28;20037;-78
2021/09/18 07:23:11;;;;;;;9.65;5.40;;;;;;;;;;5074405;28;20028;-78
2021/09/18 07:25:37;;;;;;;12.00;5.03;;;;;;;;;;5064396;28;20085;-78
2021/09/18 07:28:03;;;;;;;10.35;5.28;;;;;;;;;;5069429;28;20040;-78
2021/09/18 07:30:30;;;;;;;10.32;5.05;;;;;;;;;;5069439;28;20074;-77
2021/09/18 07:32:56;;;;;;;12.23;5.57;;;;;;;;;;5065460;28;20034;-78
2021/09/18 07:35:22;;;;;;;13.00;5.13;;;;;;;;;;5069747;28;20177;-78
2021/09/18 07:37:48;;;;;;;9.07;5.40;;;;;;;;;;5071666;28;20760;-78
2021/09/18 07:40:14;;;;;;;12.25;5.32;;;;;;;;;;5075109;28;20087;-78
2021/09/18 07:42:40;;;;;;;9.02;5.20;;;;;;;;;;5071357;28;20020;-77
2021/09/18 07:45:07;;;;;;;7.18;4.68;;;;;;;;;;5063107;28;20431;-78
2021/09/18 07:47:33;;;;;;;8.18;5.00;;;;;;;;;;5071976;28;20028;-78
2021/09/18 07:49:59;;;;;;;11.23;4.90;;;;;;;;;;5068256;28;20028;-78
2021/09/18 07:52:25;;;;;;;7.88;4.55;;;;;;;;;;5063127;28;20067;-78
2021/09/18 07:54:51;;;;;;;13.57;6.10;;;;;;;;;;5062596;28;20091;-78
2021/09/18 07:57:17;;;;;;;12.35;5.00;;;;;;;;;;5072348;28;20490;-78
2021/09/18 07:59:43;;;;;;;10.02;4.78;;;;;;;;;;5070841;28;20020;-78
2021/09/18 08:02:09;;;;;;;7.40;3.65;;;;;;;;;;5072262;28;20029;-78
2021/09/18 08:04:36;;;;;;;9.35;4.63;;;;;;;;;;5071684;28;20055;-78
2021/09/18 08:07:02;;;;;;;9.68;4.13;;;;;;;;;;5065905;28;20040;-78
2021/09/18 08:09:28;;;;;;;8.82;4.32;;;;;;;;;;5067080;28;20418;-78
2021/09/18 08:11:54;;;;;;;10.75;4.32;;;;;;;;;;5059222;28;20535;-78
2021/09/18 08:14:21;;;;;;;9.73;4.93;;;;;;;;;;5062807;28;20122;-78
2021/09/18 08:16:47;;;;;;;7.63;4.22;;;;;;;;;;5072278;28;20115;-78
2021/09/18 08:19:13;;;;;;;7.53;4.22;;;;;;;;;;5070909;28;20028;-78
2021/09/18 08:21:39;;;;;;;10.00;4.32;;;;;;;;;;5064246;28;20035;-78
2021/09/18 08:24:05;;;;;;;7.45;3.90;;;;;;;;;;5070449;28;20028;-78
2021/09/18 08:26:31;;;;;;;9.32;3.78;;;;;;;;;;5071582;28;20036;-78
2021/09/18 08:28:58;;;;;;;7.53;3.33;;;;;;;;;;5071560;28;20490;-78
2021/09/18 08:31:25;;;;;;;9.60;3.03;;;;;;;;;;5071373;28;20082;-78
2021/09/18 08:33:51;;;;;;;5.97;3.35;;;;;;;;;;5070984;28;20071;-78
2021/09/18 08:36:17;;;;;;;6.20;3.35;;;;;;;;;;5071431;28;20064;-78
2021/09/18 08:38:43;;;;;;;6.90;3.38;;;;;;;;;;5067659;28;20251;-78
2021/09/18 08:41:09;;;;;;;6.25;3.20;;;;;;;;;;5069908;28;20035;-78
2021/09/18 08:43:35;;;;;;;7.82;2.90;;;;;;;;;;5071189;28;20788;-78
2021/09/18 08:46:01;;;;;;;9.18;3.33;;;;;;;;;;5064637;28;20053;-78
2021/09/18 08:48:28;;;;;;;7.13;3.15;;;;;;;;;;5061063;28;20398;-78
2021/09/18 08:50:54;;;;;;;7.95;3.17;;;;;;;;;;5071430;28;20463;-78
2021/09/18 08:53:21;;;;;;;5.68;2.85;;;;;;;;;;5064646;28;20029;-78
2021/09/18 08:55:57;;;;;;;7.25;2.85;;;;;;;;;;5058905;28;20641;-78
2021/09/18 08:58:23;;;;;;;6.80;3.03;;;;;;;;;;5069540;28;20224;-78
2021/09/18 09:00:51;;;;;;;6.85;2.85;;;;;;;;;;5066933;28;20032;-78
2021/09/18 09:03:31;;;;;;;7.05;2.80;;;;;;;;;;5063675;28;20036;-78
2021/09/18 09:05:59;;;;;;;4.80;2.50;;;;;;;;;;5063936;28;20501;-78
2021/09/18 09:08:25;;;;;;;8.57;3.00;;;;;;;;;;5062206;28;20025;-78
2021/09/18 09:10:53;;;;;;;4.60;2.85;;;;;;;;;;5064904;28;20037;-78
2021/09/18 09:13:22;;;;;;;8.38;2.42;;;;;;;;;;5064892;28;20020;-78
2021/09/18 09:15:50;;;;;;;5.65;2.28;;;;;;;;;;5069140;28;20040;-78
2021/09/18 09:18:16;;;;;;;8.70;2.60;;;;;;;;;;5069963;28;20406;-78
2021/09/18 09:20:43;;;;;;;7.80;2.40;;;;;;;;;;5069529;28;20036;-78
2021/09/18 09:23:19;;;;;;;3.88;2.17;;;;;;;;;;5067732;28;20107;-78
2021/09/18 09:25:53;;;;;;;6.72;2.53;;;;;;;;;;5070210;28;20039;-78
2021/09/18 09:28:25;;;;;;;3.72;2.50;;;;;;;;;;5070524;28;20074;-78
2021/09/18 09:30:52;;;;;;;4.35;2.58;;;;;;;;;;5071565;28;20044;-78
2021/09/18 09:33:18;;;;;;;8.73;2.45;;;;;;;;;;5068962;28;20798;-78
2021/09/18 09:35:44;;;;;;;6.72;2.38;;;;;;;;;;5060630;28;20520;-78
2021/09/18 09:38:10;;;;;;;3.80;2.13;;;;;;;;;;5066901;28;20079;-78
2021/09/18 09:40:42;;;;;;;4.47;2.78;;;;;;;;;;5060199;28;20037;-78
2021/09/18 09:43:09;;;;;;;3.17;2.22;;;;;;;;;;5062504;28;20127;-79
2021/09/18 09:45:36;;;;;;;5.65;2.88;;;;;;;;;;5055296;28;20037;-78
2021/09/18 09:48:21;;;;;;;6.35;2.65;;;;;;;;;;5068943;28;20032;-78
2021/09/18 09:50:57;;;;;;;9.68;2.58;;;;;;;;;;5067888;28;20040;-78
2021/09/18 09:53:30;;;;;;;5.90;2.58;;;;;;;;;;5059722;28;20076;-78
2021/09/18 09:55:57;;;;;;;6.75;2.25;;;;;;;;;;5056209;28;20052;-78
2021/09/18 09:58:23;;;;;;;5.45;2.70;;;;;;;;;;5058536;28;20033;-79
2021/09/18 10:00:51;;;;;;;3.75;2.25;;;;;;;;;;5053369;28;20064;-79
2021/09/18 10:03:21;;;;;;;5.20;2.08;;;;;;;;;;5055027;28;20032;-79
2021/09/18 10:05:48;;;;;;;7.30;2.90;;;;;;;;;;5052005;28;20430;-79
2021/09/18 10:08:14;;;;;;;4.10;2.47;;;;;;;;;;5061133;28;20774;-78
2021/09/18 10:10:40;;;;;;;6.00;2.75;;;;;;;;;;5060663;28;20411;-79
2021/09/18 10:13:07;;;;;;;6.95;3.25;;;;;;;;;;5070383;28;20523;-78
2021/09/18 10:15:33;;;;;;;10.05;4.72;;;;;;;;;;5059980;28;20052;-79
2021/09/18 10:18:02;;;;;;;6.57;2.92;;;;;;;;;;5064663;28;20043;-78
2021/09/18 10:23:14;;;;;;;5.68;2.10;;;;;;;;;;5068340;28;20025;-78
2021/09/18 10:25:41;;;;;;;6.07;2.80;;;;;;;;;;5073572;28;20029;-78
2021/09/18 10:28:13;;;;;;;4.88;2.50;;;;;;;;;;5065987;28;20033;-78
2021/09/18 10:30:43;;;;;;;5.28;2.72;;;;;;;;;;5065729;28;20050;-78
2021/09/18 10:33:28;;;;;;;5.30;2.92;;;;;;;;;;5058194;28;20021;-78
2021/09/18 10:35:56;;;;;;;5.20;2.53;;;;;;;;;;5069016;28;20036;-79
2021/09/18 10:38:27;;;;;;;8.10;2.90;;;;;;;;;;5067146;28;20028;-78
2021/09/18 10:40:58;;;;;;;6.55;3.15;;;;;;;;;;5066724;28;20033;-79
2021/09/18 10:43:28;;;;;;;10.00;2.58;;;;;;;;;;5067259;28;20020;-79
2021/09/18 10:45:54;;;;;;;4.90;3.17;;;;;;;;;;5070264;28;20116;-78
2021/09/18 10:48:33;;;;;;;6.50;2.78;;;;;;;;;;5063908;28;20044;-78
2021/09/18 10:50:59;;;;;;;3.88;2.60;;;;;;;;;;5068448;28;20087;-79
2021/09/18 10:53:25;;;;;;;6.72;2.58;;;;;;;;;;5069192;28;20049;-79
2021/09/18 10:55:55;;;;;;;4.30;2.38;;;;;;;;;;5065362;28;20494;-78
2021/09/18 10:58:23;;;;;;;4.82;2.47;;;;;;;;;;5066368;28;20049;-78
2021/09/18 11:00:53;;;;;;;5.07;2.40;;;;;;;;;;5057323;28;20347;-78
2021/09/18 11:03:42;;;;;;;4.22;2.63;;;;;;;;;;5067062;28;20047;-78
2021/09/18 11:06:08;;;;;;;4.18;2.35;;;;;;;;;;5065511;28;20068;-78
2021/09/18 11:08:36;;;;;;;5.45;2.13;;;;;;;;;;5068016;28;20036;-78
2021/09/18 11:11:04;;;;;;;3.90;2.47;;;;;;;;;;5057255;28;20734;-78
2021/09/18 11:13:37;;;;;;;4.93;2.22;;;;;;;;;;5064505;28;20082;-78
2021/09/18 11:16:07;;;;;;;5.45;2.10;;;;;;;;;;5080788;28;20039;-78
2021/09/18 11:18:36;;;;;;;4.80;2.55;;;;;;;;;;5073268;28;20055;-77
2021/09/18 11:21:21;;;;;;;5.20;2.17;;;;;;;;;;5068431;28;20030;-78
2021/09/18 11:23:58;;;;;;;3.78;2.03;;;;;;;;;;5074237;28;20508;-77
2021/09/18 11:26:39;;;;;;;3.30;1.92;;;;;;;;;;5058756;28;20040;-77
2021/09/18 11:29:17;;;;;;;4.03;2.28;;;;;;;;;;5066320;28;20036;-78
2021/09/18 11:31:56;;;;;;;5.95;2.30;;;;;;;;;;5061930;28;20037;-78
2021/09/18 11:34:26;;;;;;;3.42;1.80;;;;;;;;;;5058199;28;20082;-77
2021/09/18 11:36:54;;;;;;;5.05;2.00;;;;;;;;;;5065153;28;20112;-78
2021/09/18 11:39:35;;;;;;;4.28;1.92;;;;;;;;;;5063239;28;20070;-77
2021/09/18 11:42:11;;;;;;;4.55;2.20;;;;;;;;;;5067449;28;20642;-78
2021/09/18 11:44:37;;;;;;;4.03;1.90;;;;;;;;;;5065426;28;20032;-78
2021/09/18 11:47:04;;;;;;;4.50;1.88;;;;;;;;;;5067723;28;20079;-78
2021/09/18 11:49:31;;;;;;;3.88;2.03;;;;;;;;;;5062185;28;20103;-78
2021/09/18 11:52:01;;;;;;;3.03;1.60;;;;;;;;;;5072076;28;20629;-78
2021/09/18 11:54:27;;;;;;;6.18;1.77;;;;;;;;;;5053359;28;20047;-77
2021/09/18 11:56:53;;;;;;;3.50;2.22;;;;;;;;;;5067263;28;20041;-77
2021/09/18 11:59:19;;;;;;;4.13;2.05;;;;;;;;;;5076426;28;20727;-78
2021/09/18 12:01:48;;;;;;;3.55;1.60;;;;;;;;;;5069747;28;20833;-77
2021/09/18 12:04:14;;;;;;;4.40;1.80;;;;;;;;;;5063008;28;20106;-77
2021/09/18 12:06:40;;;;;;;3.75;1.63;;;;;;;;;;5064849;28;20119;-77
2021/09/18 12:09:07;;;;;;;6.25;2.30;;;;;;;;;;5063727;28;20054;-77
2021/09/18 12:11:38;;;;;;;3.58;2.15;;;;;;;;;;5065482;28;20040;-77
2021/09/18 12:14:04;;;;;;;2.97;2.22;;;;;;;;;;5063437;28;20036;-78
2021/09/18 12:16:33;;;;;;;5.60;2.42;;;;;;;;;;5066812;28;20435;-77
2021/09/18 12:19:00;;;;;;;4.30;2.70;;;;;;;;;;5061005;28;20028;-77
2021/09/18 12:21:27;;;;;;;6.30;2.83;;;;;;;;;;5071382;28;20017;-77
2021/09/18 12:24:07;;;;;;;6.03;2.10;;;;;;;;;;5058634;28;20033;-77
2021/09/18 12:26:34;;;;;;;4.30;2.28;;;;;;;;;;5068384;28;20028;-77
2021/09/18 12:29:13;;;;;;;5.18;3.20;;;;;;;;;;5068862;28;20048;-77
2021/09/18 12:31:43;;;;;;;7.38;3.20;;;;;;;;;;5067952;28;20040;-78
2021/09/18 12:34:19;;;;;;;4.07;2.20;;;;;;;;;;5070030;28;20043;-78
2021/09/18 12:36:46;;;;;;;5.43;2.50;;;;;;;;;;5064233;28;20036;-78
2021/09/18 12:39:13;;;;;;;6.55;3.03;;;;;;;;;;5057815;28;20036;-78
2021/09/18 12:41:41;;;;;;;5.72;2.35;;;;;;;;;;5059305;28;20029;-78
2021/09/18 12:44:11;;;;;;;4.70;2.05;;;;;;;;;;5068683;28;20032;-78
2021/09/18 12:46:40;;;;;;;4.90;2.58;;;;;;;;;;5067368;28;20340;-78
2021/09/18 12:49:07;;;;;;;2.78;1.90;;;;;;;;;;5064130;28;20032;-78
2021/09/18 12:51:34;;;;;;;4.45;1.90;;;;;;;;;;5061543;28;20039;-78
2021/09/18 12:54:00;;;;;;;5.95;2.33;;;;;;;;;;5056411;28;20036;-78
2021/09/18 12:56:32;;;;;;;5.07;1.92;;;;;;;;;;5064533;28;20123;-78
2021/09/18 12:58:59;;;;;;;3.53;2.08;;;;;;;;;;5063930;28;20043;-78
2021/09/18 13:01:38;;;;;;;5.25;1.98;;;;;;;;;;5070734;28;20028;-78
2021/09/18 13:04:08;;;;;;;3.97;1.48;;;;;;;;;;5062960;28;20044;-78
2021/09/18 13:06:35;;;;;;;3.10;1.70;;;;;;;;;;5060086;28;20116;-78
2021/09/18 13:09:01;;;;;;;4.00;1.67;;;;;;;;;;5054534;28;20044;-78
2021/09/18 13:11:32;;;;;;;3.63;1.98;;;;;;;;;;5057818;28;20053;-77
2021/09/18 13:14:09;;;;;;;4.15;1.80;;;;;;;;;;5070193;28;20036;-78
2021/09/18 13:16:36;;;;;;;3.60;1.92;;;;;;;;;;5054977;28;20103;-78
2021/09/18 13:19:05;;;;;;;2.35;1.60;;;;;;;;;;5066171;28;20044;-78
2021/09/18 13:21:31;;;;;;;2.75;1.67;;;;;;;;;;5061526;28;20020;-78
2021/09/18 13:23:57;;;;;;;4.82;2.00;;;;;;;;;;5068119;28;20090;-78
2021/09/18 13:26:23;;;;;;;2.50;1.60;;;;;;;;;;5058779;28;20459;-78
2021/09/18 13:28:49;;;;;;;4.70;2.88;;;;;;;;;;5061893;28;20048;-77
2021/09/18 13:31:16;;;;;;;4.22;2.17;;;;;;;;;;5059256;28;20124;-78
2021/09/18 13:33:42;;;;;;;3.70;1.88;;;;;;;;;;5063211;28;20045;-78
2021/09/18 13:36:08;;;;;;;4.25;2.17;;;;;;;;;;5051749;28;20364;-78
2021/09/18 13:38:34;;;;;;;4.60;2.35;;;;;;;;;;5066524;28;20541;-78
2021/09/18 13:41:00;;;;;;;3.03;1.77;;;;;;;;;;5062970;28;20852;-78
2021/09/18 13:43:26;;;;;;;5.03;2.15;;;;;;;;;;5065128;28;20029;-78
2021/09/18 13:45:52;;;;;;;3.88;1.90;;;;;;;;;;5068908;28;20031;-78
2021/09/18 13:48:18;;;;;;;4.95;2.20;;;;;;;;;;5060265;28;20112;-78
2021/09/18 13:50:44;;;;;;;3.90;2.30;;;;;;;;;;5066060;28;20043;-78
2021/09/18 13:53:10;;;;;;;4.65;2.55;;;;;;;;;;5068587;28;20070;-78
2021/09/18 13:55:36;;;;;;;5.65;2.30;;;;;;;;;;5064210;28;20394;-78
2021/09/18 13:58:03;;;;;;;5.93;2.50;;;;;;;;;;5057627;28;20090;-78
2021/09/18 14:00:30;;;;;;;2.90;1.90;;;;;;;;;;5069205;28;20016;-78
2021/09/18 14:02:56;;;;;;;3.67;2.17;;;;;;;;;;5055764;28;20036;-78
2021/09/18 14:05:23;;;;;;;4.72;2.33;;;;;;;;;;5069935;28;20033;-77
2021/09/18 14:07:49;;;;;;;6.32;2.25;;;;;;;;;;5053067;28;20037;-78
2021/09/18 14:10:15;;;;;;;3.83;2.22;;;;;;;;;;5058134;28;20032;-78
2021/09/18 14:12:41;;;;;;;3.50;1.70;;;;;;;;;;5050975;28;20044;-78
2021/09/18 14:15:07;;;;;;;4.38;1.90;;;;;;;;;;5057442;28;20146;-78
2021/09/18 14:17:33;;;;;;;3.83;1.90;;;;;;;;;;5065930;28;20040;-78
2021/09/18 14:19:59;;;;;;;3.45;1.92;;;;;;;;;;5063702;28;20048;-78
2021/09/18 14:22:25;;;;;;;5.07;2.15;;;;;;;;;;5068060;28;20047;-78
2021/09/18 14:24:51;;;;;;;4.13;1.90;;;;;;;;;;5078915;28;20371;-78
2021/09/18 14:27:17;;;;;;;2.42;1.50;;;;;;;;;;5073964;28;20485;-78
2021/09/18 14:29:43;;;;;;;3.38;1.85;;;;;;;;;;5074423;28;20064;-78
2021/09/18 14:32:09;;;;;;;4.57;1.88;;;;;;;;;;5060656;28;20111;-77
2021/09/18 14:34:36;;;;;;;5.18;1.60;;;;;;;;;;5067546;28;20151;-78
2021/09/18 14:37:03;;;;;;;5.47;1.95;;;;;;;;;;5063260;28;20063;-78
2021/09/18 14:39:29;;;;;;;4.78;1.80;;;;;;;;;;5066425;28;20082;-78
2021/09/18 14:41:56;;;;;;;3.63;1.90;;;;;;;;;;5069805;28;20028;-78
2021/09/18 14:44:22;;;;;;;3.45;1.50;;;;;;;;;;5066942;28;20037;-78